עמוד ראשי
METAR-TAF:

METAR-TAF

שדות תעופה :

RAF

Tain, סקוטלנד

קו רוחב: 57-49N, קו אורך: 003-58W, גובה: 4מטר

תצפית מזג אוויר נוכחית

הדו"ח נערך לפני 48דקות, בשעה 22:50 UTC
רוח רגועה
טמפרטורת 11 צלסיוס
לחות 94%
לחץ 1018 hPa
ראות 10 קילומטר או יותר
אד,

METAR: EGQA 182250Z AUTO 00000KT 9999 BR OVC008/// 11/10 Q1018

זמן: 00:38 (23:38 UTC)


TAF: חסר

תצפיות ותחזיות מזג אוויר לגבי יותר מ- 4,000 שדות תעופה ברחבי העולם. דוחות METAR ו- TAF.

התחנות הזמינות מסומנות בנקודות צהובות ואדומות על גבי המפה.

העבר את העכבר לנקודה הצבעונית על מנת לראות את שם התחנה.

לאחר מכן, לחץ כדי לראות את תוכן ואת תחזיות מזג האוויר.

כדי לשנות את המפה: לחץ על הכפתורים הירוקים עם הפלוס השחור כדי להתקרב; על הכפתור הירוק עם המקף כדי להתרחק; או בחיצים הירוקים למפות סמוכות.


METAR-TAF: